createdAt,value
2023-06-11T00:00:25.822Z,69.15
2023-06-11T00:01:25.864Z,68.55
2023-06-11T00:02:25.869Z,68.72
2023-06-11T00:03:26.943Z,68.41
2023-06-11T00:04:26.197Z,67.28
2023-06-11T00:05:25.812Z,67.61
2023-06-11T00:06:25.771Z,68.41
2023-06-11T00:07:25.786Z,68.12
2023-06-11T00:08:25.773Z,68.85
2023-06-11T00:09:25.793Z,68.72
2023-06-11T00:10:25.740Z,67.51
2023-06-11T00:11:25.735Z,67.51
2023-06-11T00:12:25.742Z,67.78
2023-06-11T00:13:25.745Z,67.71
2023-06-11T00:14:25.750Z,68.12
2023-06-11T00:15:25.751Z,68.21
2023-06-11T00:16:25.841Z,67.78
2023-06-11T00:17:25.730Z,67.71
2023-06-11T00:18:25.708Z,67.78
2023-06-11T00:19:25.754Z,67.78
2023-06-11T00:20:25.730Z,67.51
2023-06-11T00:21:25.707Z,67.51
2023-06-11T00:22:25.864Z,67.71
2023-06-11T00:23:25.681Z,67.51
2023-06-11T00:24:25.695Z,67.61
2023-06-11T00:25:25.673Z,67.71
2023-06-11T00:26:25.646Z,67.31
2023-06-11T00:27:25.639Z,67.51
2023-06-11T00:28:25.780Z,68.75
2023-06-11T00:29:25.647Z,68.45
2023-06-11T00:30:25.666Z,68.45
2023-06-11T00:31:25.693Z,68.55
2023-06-11T00:32:25.632Z,69.35
2023-06-11T00:33:25.626Z,68.45
2023-06-11T00:34:25.606Z,68.65
2023-06-11T00:35:25.630Z,68.55
2023-06-11T00:36:26.580Z,68.25
2023-06-11T00:37:25.597Z,68.45
2023-06-11T00:38:25.560Z,69.35
2023-06-11T00:39:25.593Z,69.09
2023-06-11T00:40:25.628Z,69.35
2023-06-11T00:41:25.589Z,69.76
2023-06-11T00:42:25.581Z,69.25
2023-06-11T00:43:25.556Z,69.69
2023-06-11T00:44:25.541Z,70.70
2023-06-11T00:45:25.574Z,70.53
2023-06-11T00:46:25.636Z,70.63
2023-06-11T00:47:25.538Z,70.09
2023-06-11T00:48:25.545Z,70.19
2023-06-11T00:49:25.526Z,69.89
2023-06-11T00:50:25.487Z,69.79
2023-06-11T00:51:25.488Z,69.79
2023-06-11T00:52:25.493Z,69.79
2023-06-11T00:53:25.490Z,69.76
2023-06-11T00:54:25.461Z,69.96
2023-06-11T00:55:25.449Z,69.65
2023-06-11T00:56:25.470Z,70.09
2023-06-11T00:57:25.465Z,70.19
2023-06-11T00:58:25.458Z,69.69
2023-06-11T00:59:25.436Z,70.63
2023-06-11T01:00:25.420Z,70.73
2023-06-11T01:01:25.577Z,70.23
2023-06-11T01:02:25.441Z,70.53
2023-06-11T01:03:25.406Z,71.23
2023-06-11T01:04:25.455Z,70.93
2023-06-11T01:05:25.532Z,70.53
2023-06-11T01:06:25.379Z,70.76
2023-06-11T01:07:25.356Z,72.20
2023-06-11T01:08:25.410Z,72.27
2023-06-11T01:09:25.363Z,71.91
2023-06-11T01:10:25.369Z,72.27
2023-06-11T01:11:25.379Z,71.26
2023-06-11T01:12:25.355Z,72.31
2023-06-11T01:13:25.365Z,72.04
2023-06-11T01:14:25.331Z,72.41
2023-06-11T01:15:25.331Z,72.81
2023-06-11T01:16:25.372Z,71.97
2023-06-11T01:17:25.392Z,71.80
2023-06-11T01:18:25.325Z,71.47
2023-06-11T01:19:25.305Z,71.56
2023-06-11T01:20:25.290Z,71.03
2023-06-11T01:21:25.305Z,70.83
2023-06-11T01:22:25.276Z,70.12
2023-06-11T01:23:25.306Z,70.53
2023-06-11T01:24:25.305Z,70.53
2023-06-11T01:25:25.282Z,70.43
2023-06-11T01:26:25.288Z,70.63
2023-06-11T01:27:25.269Z,70.93
2023-06-11T01:28:25.228Z,70.83
2023-06-11T01:29:25.266Z,70.29
2023-06-11T01:30:26.269Z,70.23
2023-06-11T01:31:25.256Z,70.43
2023-06-11T01:32:25.341Z,70.70
2023-06-11T01:33:25.258Z,70.53
2023-06-11T01:34:25.254Z,69.79
2023-06-11T01:35:25.257Z,70.09
2023-06-11T01:36:25.189Z,70.43
2023-06-11T01:37:25.192Z,71.91
2023-06-11T01:38:25.184Z,74.08
2023-06-11T01:39:25.185Z,74.19
2023-06-11T01:40:25.210Z,74.73
2023-06-11T01:41:25.164Z,76.18
2023-06-11T01:42:25.161Z,76.42
2023-06-11T01:43:25.189Z,76.42
2023-06-11T01:44:25.214Z,76.07
2023-06-11T01:45:25.177Z,75.54
2023-06-11T01:46:25.218Z,74.49
2023-06-11T01:47:25.171Z,74.29
2023-06-11T01:48:25.109Z,74.19
2023-06-11T01:49:26.089Z,73.85
2023-06-11T01:50:25.242Z,73.55
2023-06-11T01:51:25.125Z,73.21
2023-06-11T01:52:25.131Z,73.01
2023-06-11T01:53:25.088Z,72.31
2023-06-11T01:54:25.098Z,72.61
2023-06-11T01:55:25.096Z,72.20
2023-06-11T01:56:25.091Z,72.34
2023-06-11T01:57:25.063Z,73.14
2023-06-11T01:58:25.070Z,73.79
2023-06-11T01:59:25.056Z,74.19
2023-06-11T02:00:25.039Z,73.92
2023-06-11T02:01:25.109Z,74.29
2023-06-11T02:02:25.054Z,73.99
2023-06-11T02:03:25.094Z,74.19
2023-06-11T02:04:25.061Z,73.88
2023-06-11T02:05:25.169Z,73.08
2023-06-11T02:06:25.097Z,73.79
2023-06-11T02:07:25.090Z,73.45
2023-06-11T02:08:25.044Z,73.48
2023-06-11T02:09:25.073Z,74.32
2023-06-11T02:10:25.079Z,73.48
2023-06-11T02:11:25.173Z,73.68
2023-06-11T02:12:25.894Z,73.28
2023-06-11T02:13:25.134Z,73.65
2023-06-11T02:14:25.111Z,72.85
2023-06-11T02:15:25.076Z,72.34
2023-06-11T02:16:25.073Z,72.85
2023-06-11T02:17:25.091Z,72.74
2023-06-11T02:18:25.050Z,71.84
2023-06-11T02:19:25.036Z,72.11
2023-06-11T02:20:25.109Z,71.70
2023-06-11T02:21:24.977Z,71.50
2023-06-11T02:22:24.961Z,71.50
2023-06-11T02:23:25.021Z,71.40
2023-06-11T02:24:24.999Z,71.97
2023-06-11T02:25:24.932Z,73.82
2023-06-11T02:26:24.991Z,74.76
2023-06-11T02:27:24.873Z,74.66
2023-06-11T02:28:24.905Z,74.52
2023-06-11T02:29:24.964Z,74.43
2023-06-11T02:30:24.894Z,74.43
2023-06-11T02:31:24.958Z,74.32
2023-06-11T02:32:24.962Z,73.99
2023-06-11T02:33:24.942Z,73.88
2023-06-11T02:34:24.892Z,73.48
2023-06-11T02:35:24.996Z,73.14
2023-06-11T02:36:24.851Z,72.94
2023-06-11T02:37:24.844Z,72.04
2023-06-11T02:38:24.853Z,72.34
2023-06-11T02:39:24.888Z,72.44
2023-06-11T02:40:24.817Z,72.94
2023-06-11T02:41:24.990Z,72.24
2023-06-11T02:42:24.996Z,72.64
2023-06-11T02:43:24.869Z,72.38
2023-06-11T02:44:24.804Z,73.82
2023-06-11T02:45:24.955Z,74.80
2023-06-11T02:46:24.839Z,76.35
2023-06-11T02:47:25.958Z,76.35
2023-06-11T02:48:24.818Z,76.31
2023-06-11T02:49:24.783Z,76.21
2023-06-11T02:50:24.879Z,75.98
2023-06-11T02:51:24.871Z,75.57
2023-06-11T02:52:24.780Z,75.37
2023-06-11T02:53:24.867Z,74.46
2023-06-11T02:54:24.824Z,74.63
2023-06-11T02:55:24.777Z,74.43
2023-06-11T02:56:24.877Z,74.52
2023-06-11T02:57:24.766Z,73.79
2023-06-11T02:58:24.790Z,73.99
2023-06-11T02:59:24.691Z,73.08
2023-06-11T03:00:24.690Z,73.48
2023-06-11T03:01:24.876Z,73.08
2023-06-11T03:02:24.795Z,72.67
2023-06-11T03:03:24.779Z,72.47
2023-06-11T03:04:24.775Z,72.38
2023-06-11T03:05:24.777Z,72.58
2023-06-11T03:06:24.784Z,73.32
2023-06-11T03:07:24.653Z,73.82
2023-06-11T03:08:24.707Z,74.05
2023-06-11T03:09:24.741Z,74.36
2023-06-11T03:10:24.866Z,74.26
2023-06-11T03:11:24.719Z,74.29
2023-06-11T03:12:24.718Z,73.96
2023-06-11T03:13:24.731Z,74.66
2023-06-11T03:14:24.656Z,76.45
2023-06-11T03:15:24.609Z,76.18
2023-06-11T03:16:24.828Z,76.25
2023-06-11T03:17:24.758Z,76.15
2023-06-11T03:18:24.716Z,75.84
2023-06-11T03:19:24.670Z,75.95
2023-06-11T03:20:24.616Z,75.51
2023-06-11T03:21:24.708Z,75.74
2023-06-11T03:22:24.657Z,74.80
2023-06-11T03:23:24.659Z,74.80
2023-06-11T03:24:24.800Z,74.80
2023-06-11T03:25:24.610Z,74.66
2023-06-11T03:26:24.612Z,74.26
2023-06-11T03:27:24.574Z,74.26
2023-06-11T03:28:24.540Z,74.05
2023-06-11T03:29:24.517Z,74.05
2023-06-11T03:30:24.585Z,73.96
2023-06-11T03:31:24.744Z,73.82
2023-06-11T03:32:24.618Z,73.55
2023-06-11T03:33:24.639Z,73.96
2023-06-11T03:34:24.595Z,74.26
2023-06-11T03:35:24.503Z,74.05
2023-06-11T03:36:24.556Z,73.65
2023-06-11T03:37:24.469Z,73.62
2023-06-11T03:38:24.644Z,73.82
2023-06-11T03:39:24.525Z,73.82
2023-06-11T03:40:24.498Z,73.52
2023-06-11T03:41:24.565Z,73.55
2023-06-11T03:42:24.499Z,74.26
2023-06-11T03:43:24.421Z,74.40
2023-06-11T03:44:24.576Z,74.90
2023-06-11T03:45:24.449Z,75.10
2023-06-11T03:46:24.561Z,74.90
2023-06-11T03:47:24.411Z,74.66
2023-06-11T03:48:24.387Z,74.16
2023-06-11T03:49:24.514Z,74.26
2023-06-11T03:50:24.384Z,74.26
2023-06-11T03:51:24.422Z,74.36
2023-06-11T03:52:24.378Z,74.02
2023-06-11T03:53:24.381Z,74.05
2023-06-11T03:54:24.354Z,74.16
2023-06-11T03:55:24.357Z,74.02
2023-06-11T03:56:24.404Z,73.72
2023-06-11T03:57:24.360Z,73.82
2023-06-11T03:58:24.329Z,73.42
2023-06-11T03:59:24.333Z,73.52
2023-06-11T04:00:24.325Z,73.92
2023-06-11T04:01:24.327Z,73.62
2023-06-11T04:02:24.447Z,73.22
2023-06-11T04:03:24.459Z,73.11
2023-06-11T04:04:24.328Z,73.22
2023-06-11T04:05:24.336Z,73.42
2023-06-11T04:06:24.302Z,73.65
2023-06-11T04:07:24.288Z,74.36
2023-06-11T04:08:24.280Z,74.56
2023-06-11T04:09:24.414Z,74.36
2023-06-11T04:10:24.363Z,74.09
2023-06-11T04:11:24.299Z,74.19
2023-06-11T04:12:24.260Z,74.26
2023-06-11T04:13:24.251Z,74.16
2023-06-11T04:14:24.249Z,74.52
2023-06-11T04:15:24.230Z,74.12
2023-06-11T04:16:24.273Z,74.16
2023-06-11T04:17:24.377Z,74.22
2023-06-11T04:18:24.209Z,74.02
2023-06-11T04:19:24.227Z,73.62
2023-06-11T04:20:24.217Z,73.88
2023-06-11T04:21:24.231Z,73.72
2023-06-11T04:22:24.239Z,73.28
2023-06-11T04:23:24.198Z,73.38
2023-06-11T04:24:24.260Z,72.94
2023-06-11T04:25:24.170Z,72.27
2023-06-11T04:26:24.216Z,72.54
2023-06-11T04:27:24.166Z,72.04
2023-06-11T04:28:24.159Z,72.04
2023-06-11T04:29:24.184Z,72.54
2023-06-11T04:30:24.152Z,72.24
2023-06-11T04:31:24.153Z,71.80
2023-06-11T04:32:24.190Z,72.11
2023-06-11T04:33:24.128Z,72.31
2023-06-11T04:34:24.142Z,71.97
2023-06-11T04:35:24.108Z,71.47
2023-06-11T04:36:24.113Z,70.63
2023-06-11T04:37:24.116Z,69.65
2023-06-11T04:38:24.117Z,69.35
2023-06-11T04:39:24.119Z,68.62
2023-06-11T04:40:24.079Z,67.68
2023-06-11T04:41:24.081Z,67.45
2023-06-11T04:42:24.085Z,65.91
2023-06-11T04:43:24.062Z,65.58
2023-06-11T04:44:24.076Z,64.68
2023-06-11T04:45:24.049Z,66.85
2023-06-11T04:46:24.124Z,65.74
2023-06-11T04:47:24.185Z,67.35
2023-06-11T04:48:24.075Z,67.55
2023-06-11T04:49:24.052Z,68.29
2023-06-11T04:50:24.050Z,68.72
2023-06-11T04:51:24.016Z,68.88
2023-06-11T04:52:24.004Z,68.79
2023-06-11T04:53:24.006Z,68.65
2023-06-11T04:54:24.033Z,68.85
2023-06-11T04:55:24.014Z,68.35
2023-06-11T04:56:23.975Z,68.32
2023-06-11T04:57:23.968Z,67.49
2023-06-11T04:58:23.956Z,67.55
2023-06-11T04:59:24.001Z,67.05
2023-06-11T05:00:23.951Z,66.02
2023-06-11T05:01:24.031Z,65.39
2023-06-11T05:02:24.122Z,65.25
2023-06-11T05:03:23.927Z,64.45
2023-06-11T05:04:23.937Z,64.78
2023-06-11T05:05:23.966Z,65.89
2023-06-11T05:06:24.979Z,65.65
2023-06-11T05:07:23.951Z,68.52
2023-06-11T05:08:26.566Z,68.82
2023-06-11T05:09:23.887Z,69.26
2023-06-11T05:10:23.884Z,69.66
2023-06-11T05:11:25.387Z,70.03
2023-06-11T05:12:28.353Z,69.73
2023-06-11T05:13:24.016Z,69.89
2023-06-11T05:14:23.851Z,68.46
2023-06-11T05:15:23.858Z,68.55
2023-06-11T05:16:23.912Z,69.19
2023-06-11T05:17:23.955Z,69.82
2023-06-11T05:18:23.817Z,70.56
2023-06-11T05:19:23.838Z,72.03
2023-06-11T05:20:23.816Z,71.20
2023-06-11T05:21:23.822Z,70.53
2023-06-11T05:22:23.838Z,71.26
2023-06-11T05:23:23.816Z,73.00
2023-06-11T05:24:23.850Z,73.00
2023-06-11T05:25:23.824Z,73.00
2023-06-11T05:26:23.777Z,73.34
2023-06-11T05:27:23.836Z,73.71
2023-06-11T05:28:23.778Z,73.21
2023-06-11T05:29:23.783Z,72.50
2023-06-11T05:30:23.762Z,72.06
2023-06-11T05:31:23.824Z,73.74
2023-06-11T05:32:23.879Z,72.94
2023-06-11T05:33:23.835Z,72.70
2023-06-11T05:34:23.822Z,71.16
2023-06-11T05:35:23.717Z,71.06
2023-06-11T05:36:23.718Z,70.19
2023-06-11T05:37:23.692Z,69.06
2023-06-11T05:38:23.761Z,68.23
2023-06-11T05:39:23.752Z,67.19
2023-06-11T05:40:23.732Z,68.52
2023-06-11T05:41:23.659Z,70.09
2023-06-11T05:42:23.667Z,70.36
2023-06-11T05:43:23.694Z,70.19
2023-06-11T05:44:23.683Z,69.69
2023-06-11T05:45:23.642Z,69.56
2023-06-11T05:46:23.674Z,70.03
2023-06-11T05:47:23.708Z,68.89
2023-06-11T05:48:23.645Z,68.79
2023-06-11T05:49:23.660Z,69.59
2023-06-11T05:50:23.619Z,69.06
2023-06-11T05:51:23.595Z,69.66
2023-06-11T05:52:23.579Z,67.06
2023-06-11T05:53:23.636Z,68.82
2023-06-11T05:54:23.601Z,68.52
2023-06-11T05:55:23.592Z,69.62
2023-06-11T05:56:23.560Z,69.23
2023-06-11T05:57:23.570Z,68.82
2023-06-11T05:58:23.673Z,68.63
2023-06-11T05:59:23.554Z,69.13
2023-06-11T06:00:23.555Z,68.86
2023-06-11T06:01:23.551Z,69.16
2023-06-11T06:02:23.731Z,68.46
2023-06-11T06:03:23.688Z,69.06
2023-06-11T06:04:23.556Z,68.86
2023-06-11T06:05:23.529Z,66.83
2023-06-11T06:06:23.552Z,67.69
2023-06-11T06:07:23.561Z,65.26
2023-06-11T06:08:23.497Z,64.57
2023-06-11T06:09:23.500Z,64.57
2023-06-11T06:10:23.506Z,64.44
2023-06-11T06:11:23.464Z,64.84
2023-06-11T06:12:23.479Z,64.21
2023-06-11T06:13:23.476Z,65.14
2023-06-11T06:14:23.436Z,65.23
2023-06-11T06:15:23.473Z,64.01
2023-06-11T06:16:24.694Z,64.01
2023-06-11T06:17:23.465Z,62.51
2023-06-11T06:18:23.407Z,62.41
2023-06-11T06:19:23.424Z,63.58
2023-06-11T06:20:23.415Z,62.88
2023-06-11T06:21:23.429Z,63.32
2023-06-11T06:22:23.437Z,62.59
2023-06-11T06:23:23.389Z,62.91
2023-06-11T06:24:23.482Z,63.34
2023-06-11T06:25:23.375Z,62.88
2023-06-11T06:26:23.390Z,64.37
2023-06-11T06:27:23.364Z,62.24
2023-06-11T06:28:23.367Z,62.97
2023-06-11T06:29:24.407Z,65.17
2023-06-11T06:30:23.337Z,64.34
2023-06-11T06:31:23.803Z,63.94
2023-06-11T06:32:23.400Z,64.10
2023-06-11T06:33:23.373Z,64.50
2023-06-11T06:34:23.318Z,65.30
2023-06-11T06:35:23.369Z,64.37
2023-06-11T06:36:23.823Z,65.73
2023-06-11T06:37:23.304Z,63.14
2023-06-11T06:38:23.325Z,65.37
2023-06-11T06:39:23.299Z,64.17
2023-06-11T06:40:23.303Z,63.37
2023-06-11T06:41:23.290Z,62.93
2023-06-11T06:42:23.268Z,64.60
2023-06-11T06:43:23.272Z,67.57
2023-06-11T06:44:23.270Z,64.17
2023-06-11T06:45:23.280Z,64.47
2023-06-11T06:46:23.255Z,64.34
2023-06-11T06:47:23.333Z,64.21
2023-06-11T06:48:23.362Z,64.28
2023-06-11T06:49:23.230Z,61.99
2023-06-11T06:50:23.244Z,64.97
2023-06-11T06:51:23.236Z,62.71
2023-06-11T06:52:23.225Z,64.18
2023-06-11T06:53:23.209Z,61.88
2023-06-11T06:54:23.192Z,62.78
2023-06-11T06:55:23.207Z,64.48
2023-06-11T06:56:23.260Z,63.05
2023-06-11T06:57:23.189Z,62.23
2023-06-11T06:58:23.171Z,62.79
2023-06-11T06:59:23.167Z,60.57
2023-06-11T07:00:23.160Z,60.50
2023-06-11T07:01:23.193Z,62.29
2023-06-11T07:02:23.200Z,62.66
2023-06-11T07:03:23.124Z,62.04
2023-06-11T07:04:23.127Z,63.03
2023-06-11T07:05:23.131Z,59.94
2023-06-11T07:06:23.131Z,62.38
2023-06-11T07:07:23.096Z,64.84
2023-06-11T07:08:23.096Z,64.61
2023-06-11T07:09:23.083Z,64.28
2023-06-11T07:10:23.082Z,62.85
2023-06-11T07:11:23.174Z,63.32
2023-06-11T07:12:23.111Z,62.10
2023-06-11T07:13:23.081Z,61.77
2023-06-11T07:14:23.081Z,60.74
2023-06-11T07:15:23.065Z,60.11
2023-06-11T07:16:23.084Z,63.09
2023-06-11T07:17:23.075Z,62.55
2023-06-11T07:18:23.075Z,63.95
2023-06-11T07:19:23.057Z,62.23
2023-06-11T07:20:23.080Z,62.79
2023-06-11T07:21:23.883Z,62.37
2023-06-11T07:22:24.011Z,61.94
2023-06-11T07:23:23.181Z,62.60
2023-06-11T07:24:23.091Z,59.59
2023-06-11T07:25:23.017Z,60.52
2023-06-11T07:26:23.029Z,60.82
2023-06-11T07:27:22.984Z,61.28
2023-06-11T07:28:23.004Z,60.46
2023-06-11T07:29:22.997Z,58.27
2023-06-11T07:30:22.950Z,59.96
2023-06-11T07:31:23.015Z,58.77
2023-06-11T07:32:22.992Z,59.63
2023-06-11T07:33:22.994Z,59.66
2023-06-11T07:34:22.922Z,60.63
2023-06-11T07:35:22.943Z,58.64
2023-06-11T07:36:22.932Z,58.22
2023-06-11T07:37:22.920Z,58.91
2023-06-11T07:38:22.924Z,57.99
2023-06-11T07:39:22.910Z,57.69
2023-06-11T07:40:22.900Z,58.72
2023-06-11T07:41:22.909Z,58.81
2023-06-11T07:42:22.880Z,57.92
2023-06-11T07:43:22.874Z,59.67
2023-06-11T07:44:22.871Z,57.15
2023-06-11T07:45:23.301Z,59.66
2023-06-11T07:46:23.943Z,59.69
2023-06-11T07:47:22.872Z,61.25
2023-06-11T07:48:22.854Z,62.91
2023-06-11T07:49:22.845Z,58.72
2023-06-11T07:50:22.858Z,56.83
2023-06-11T07:51:22.873Z,57.00
2023-06-11T07:52:22.847Z,57.00
2023-06-11T07:53:22.832Z,55.88
2023-06-11T07:54:25.322Z,56.97
2023-06-11T07:55:23.791Z,57.74
2023-06-11T07:56:22.817Z,56.82
2023-06-11T07:57:22.853Z,55.96
2023-06-11T07:58:22.947Z,57.02
2023-06-11T07:59:22.870Z,54.52
2023-06-11T08:00:22.850Z,55.21
2023-06-11T08:01:22.810Z,55.96
2023-06-11T08:02:22.926Z,56.74
2023-06-11T08:03:22.776Z,58.30
2023-06-11T08:04:22.756Z,56.52
2023-06-11T08:05:22.799Z,57.93
2023-06-11T08:06:22.798Z,55.76
2023-06-11T08:07:22.778Z,58.40
2023-06-11T08:08:22.743Z,55.73
2023-06-11T08:09:22.736Z,58.01
2023-06-11T08:10:22.757Z,58.48
2023-06-11T08:11:22.775Z,58.98
2023-06-11T08:12:22.811Z,58.12
2023-06-11T08:13:22.942Z,57.72
2023-06-11T08:14:22.730Z,56.97
2023-06-11T08:15:22.705Z,56.05
2023-06-11T08:16:22.825Z,57.12
2023-06-11T08:17:22.799Z,54.17
2023-06-11T08:18:22.811Z,55.36
2023-06-11T08:19:22.672Z,56.45
2023-06-11T08:20:22.707Z,57.81
2023-06-11T08:21:22.654Z,55.33
2023-06-11T08:22:22.668Z,55.04
2023-06-11T08:23:22.705Z,56.59
2023-06-11T08:24:22.831Z,52.54
2023-06-11T08:25:22.638Z,54.98
2023-06-11T08:26:22.714Z,55.05
2023-06-11T08:27:22.639Z,55.11
2023-06-11T08:28:22.616Z,54.42
2023-06-11T08:29:22.712Z,53.42
2023-06-11T08:30:22.668Z,53.99
2023-06-11T08:31:22.616Z,55.77
2023-06-11T08:32:22.779Z,53.75
2023-06-11T08:33:23.309Z,53.63
2023-06-11T08:34:22.630Z,53.80
2023-06-11T08:35:22.583Z,53.99
2023-06-11T08:36:22.619Z,55.15
2023-06-11T08:37:22.590Z,54.96
2023-06-11T08:38:22.609Z,53.67
2023-06-11T08:39:22.585Z,54.83
2023-06-11T08:40:22.674Z,52.66
2023-06-11T08:41:22.537Z,51.25
2023-06-11T08:42:22.547Z,50.46
2023-06-11T08:43:22.560Z,51.47
2023-06-11T08:44:24.780Z,50.95
2023-06-11T08:45:22.523Z,51.62
2023-06-11T08:46:22.573Z,56.05
2023-06-11T08:47:22.617Z,53.67
2023-06-11T08:48:22.575Z,48.50
2023-06-11T08:49:22.566Z,49.91
2023-06-11T08:50:22.722Z,49.94
2023-06-11T08:51:22.498Z,51.52
2023-06-11T08:52:22.471Z,51.37
2023-06-11T08:53:22.556Z,50.18
2023-06-11T08:54:22.501Z,48.53
2023-06-11T08:55:22.483Z,47.81
2023-06-11T08:56:22.477Z,47.69
2023-06-11T08:57:22.478Z,48.38
2023-06-11T08:58:22.469Z,49.29
2023-06-11T08:59:22.459Z,48.82
2023-06-11T09:00:22.459Z,51.40
2023-06-11T09:01:22.464Z,50.48
2023-06-11T09:02:22.568Z,49.35
2023-06-11T09:03:22.431Z,48.75
2023-06-11T09:04:22.480Z,48.58
2023-06-11T09:05:22.429Z,48.55
2023-06-11T09:06:22.398Z,47.54
2023-06-11T09:07:22.434Z,46.88
2023-06-11T09:08:22.408Z,48.14
2023-06-11T09:09:22.405Z,47.77
2023-06-11T09:10:22.532Z,47.74
2023-06-11T09:11:22.379Z,48.55
2023-06-11T09:12:22.388Z,46.97
2023-06-11T09:13:22.397Z,47.96
2023-06-11T09:14:22.354Z,45.49
2023-06-11T09:15:22.379Z,48.38
2023-06-11T09:16:22.391Z,45.71
2023-06-11T09:17:22.379Z,46.12
2023-06-11T09:18:23.365Z,49.27
2023-06-11T09:19:22.338Z,45.21
2023-06-11T09:20:22.325Z,45.93
2023-06-11T09:21:22.320Z,44.02
2023-06-11T09:22:22.303Z,45.93
2023-06-11T09:23:23.299Z,47.04
2023-06-11T09:24:22.718Z,47.81
2023-06-11T09:25:22.321Z,48.85
2023-06-11T09:26:22.414Z,48.73
2023-06-11T09:27:23.596Z,46.60
2023-06-11T09:28:22.435Z,45.73
2023-06-11T09:29:22.271Z,45.57
2023-06-11T09:30:22.421Z,48.53
2023-06-11T09:31:23.450Z,46.82
2023-06-11T09:33:23.305Z,46.08
2023-06-11T09:34:22.901Z,45.27
2023-06-11T09:35:22.852Z,42.25
2023-06-11T09:36:22.236Z,43.75
2023-06-11T09:37:22.218Z,47.41
2023-06-11T09:38:22.218Z,46.08
2023-06-11T09:39:22.199Z,47.05
2023-06-11T09:40:22.251Z,45.07
2023-06-11T09:41:22.197Z,45.17
2023-06-11T09:42:22.243Z,47.19
2023-06-11T09:43:22.214Z,45.89
2023-06-11T09:44:22.178Z,45.90
2023-06-11T09:45:22.349Z,47.29
2023-06-11T09:46:22.246Z,44.40
2023-06-11T09:47:22.158Z,43.51
2023-06-11T09:48:22.175Z,44.72
2023-06-11T09:49:22.140Z,45.89
2023-06-11T09:50:22.149Z,44.23
2023-06-11T09:51:22.148Z,45.01
2023-06-11T09:52:23.119Z,45.90
2023-06-11T09:53:22.184Z,43.31
2023-06-11T09:54:22.184Z,43.49
2023-06-11T09:55:22.981Z,42.80
2023-06-11T09:56:22.087Z,43.61
2023-06-11T09:57:22.101Z,43.83
2023-06-11T09:58:22.120Z,42.82
2023-06-11T09:59:22.105Z,42.60
2023-06-11T10:00:22.172Z,44.65
2023-06-11T10:01:22.082Z,42.19
2023-06-11T10:02:22.190Z,42.70
2023-06-11T10:03:22.117Z,40.62
2023-06-11T10:04:22.087Z,40.53
2023-06-11T10:05:22.071Z,40.41
2023-06-11T10:06:22.062Z,40.13
2023-06-11T10:07:22.063Z,38.27
2023-06-11T10:08:22.048Z,38.88
2023-06-11T10:09:22.040Z,39.37
2023-06-11T10:10:22.066Z,41.24
2023-06-11T10:11:22.037Z,38.29
2023-06-11T10:12:22.047Z,37.77
2023-06-11T10:13:22.166Z,36.88
2023-06-11T10:14:21.995Z,38.37
2023-06-11T10:15:21.978Z,36.67
2023-06-11T10:16:22.020Z,35.99
2023-06-11T10:17:22.097Z,36.39
2023-06-11T10:18:21.970Z,35.40
2023-06-11T10:19:22.908Z,38.07
2023-06-11T10:20:21.976Z,37.94
2023-06-11T10:21:21.951Z,37.34
2023-06-11T10:22:21.994Z,36.95
2023-06-11T10:23:21.965Z,38.04
2023-06-11T10:24:22.019Z,36.83
2023-06-11T10:25:21.939Z,36.06
2023-06-11T10:26:21.960Z,36.18
2023-06-11T10:27:22.006Z,38.63
2023-06-11T10:28:23.149Z,40.78
2023-06-11T10:29:22.923Z,35.19
2023-06-11T10:30:23.758Z,37.76
2023-06-11T10:31:23.185Z,36.55
2023-06-11T10:32:22.359Z,38.41
2023-06-11T10:33:22.923Z,36.91
2023-06-11T10:34:22.108Z,34.88
2023-06-11T10:35:21.938Z,36.29
2023-06-11T10:36:21.872Z,37.85
2023-06-11T10:37:21.863Z,36.71
2023-06-11T10:38:21.847Z,38.07
2023-06-11T10:39:21.915Z,36.06
2023-06-11T10:40:21.933Z,37.54
2023-06-11T10:41:21.823Z,35.47
2023-06-11T10:42:21.867Z,36.77
2023-06-11T10:43:21.828Z,36.57
2023-06-11T10:44:21.842Z,35.66
2023-06-11T10:45:21.804Z,36.73
2023-06-11T10:46:21.881Z,35.17
2023-06-11T10:47:21.896Z,36.87
2023-06-11T10:48:21.805Z,36.39
2023-06-11T10:49:21.791Z,35.89
2023-06-11T10:50:22.821Z,36.18
2023-06-11T10:51:21.797Z,35.70
2023-06-11T10:52:21.808Z,37.08
2023-06-11T10:53:21.795Z,35.58
2023-06-11T10:54:21.767Z,37.94
2023-06-11T10:55:21.862Z,35.28
2023-06-11T10:56:21.728Z,36.27
2023-06-11T10:57:21.781Z,38.06
2023-06-11T10:58:21.827Z,37.07
2023-06-11T10:59:21.731Z,37.76
2023-06-11T11:00:21.777Z,36.69
2023-06-11T11:01:21.759Z,36.67
2023-06-11T11:02:21.773Z,36.95
2023-06-11T11:03:21.857Z,34.76
2023-06-11T11:04:21.750Z,35.64
2023-06-11T11:05:21.742Z,35.25
2023-06-11T11:06:21.680Z,34.97
2023-06-11T11:07:21.692Z,38.13
2023-06-11T11:08:23.961Z,36.18
2023-06-11T11:09:22.686Z,35.09
2023-06-11T11:10:21.642Z,34.79
2023-06-11T11:11:21.652Z,37.34
2023-06-11T11:12:21.683Z,38.69
2023-06-11T11:13:21.631Z,36.52
2023-06-11T11:14:21.658Z,35.57
2023-06-11T11:15:21.620Z,36.47
2023-06-11T11:16:21.749Z,35.86
2023-06-11T11:17:21.691Z,35.49
2023-06-11T11:18:21.637Z,35.57
2023-06-11T11:19:21.644Z,35.17
2023-06-11T11:20:21.620Z,35.24
2023-06-11T11:21:21.595Z,36.91
2023-06-11T11:22:21.632Z,38.20
2023-06-11T11:23:21.593Z,34.48
2023-06-11T11:24:21.722Z,35.49
2023-06-11T11:25:21.551Z,35.07
2023-06-11T11:26:21.556Z,33.98
2023-06-11T11:27:21.604Z,35.35
2023-06-11T11:28:21.620Z,33.21
2023-06-11T11:29:21.547Z,35.40
2023-06-11T11:30:22.561Z,34.48
2023-06-11T11:31:21.557Z,33.20
2023-06-11T11:32:21.577Z,36.14
2023-06-11T11:33:21.552Z,32.12
2023-06-11T11:34:21.549Z,34.13
2023-06-11T11:35:21.534Z,35.11
2023-06-11T11:36:21.553Z,33.72
2023-06-11T11:37:21.501Z,34.51
2023-06-11T11:38:21.509Z,34.79
2023-06-11T11:39:21.503Z,34.28
2023-06-11T11:40:21.542Z,35.37
2023-06-11T11:41:21.476Z,33.89
2023-06-11T11:42:21.466Z,34.76
2023-06-11T11:43:21.499Z,35.05
2023-06-11T11:44:21.497Z,35.66
2023-06-11T11:45:21.478Z,34.50
2023-06-11T11:46:21.487Z,34.50
2023-06-11T11:47:21.467Z,33.23
2023-06-11T11:48:21.491Z,35.49
2023-06-11T11:49:21.435Z,34.39
2023-06-11T11:50:21.804Z,38.13
2023-06-11T11:51:21.415Z,34.76
2023-06-11T11:52:21.439Z,33.16
2023-06-11T11:53:21.487Z,33.67
2023-06-11T11:54:21.443Z,35.17
2023-06-11T11:55:21.405Z,34.88
2023-06-11T11:56:21.414Z,35.96
2023-06-11T11:57:21.434Z,37.05
2023-06-11T11:58:21.395Z,36.36
2023-06-11T11:59:21.360Z,35.25
2023-06-11T12:00:21.382Z,33.28
2023-06-11T12:01:21.360Z,34.95
2023-06-11T12:02:21.478Z,35.04
2023-06-11T12:03:21.437Z,33.58
2023-06-11T12:04:21.340Z,34.36
2023-06-11T12:05:21.349Z,33.39
2023-06-11T12:06:21.526Z,34.20
2023-06-11T12:07:21.381Z,35.96
2023-06-11T12:08:21.322Z,35.83
2023-06-11T12:09:21.315Z,33.15
2023-06-11T12:10:21.300Z,33.33
2023-06-11T12:11:21.310Z,34.72
2023-06-11T12:12:21.352Z,34.03
2023-06-11T12:13:21.278Z,35.61
2023-06-11T12:14:21.358Z,34.81
2023-06-11T12:15:21.266Z,33.33
2023-06-11T12:16:21.297Z,32.70
2023-06-11T12:17:21.289Z,35.07
2023-06-11T12:18:21.322Z,32.13
2023-06-11T12:19:24.398Z,35.50
2023-06-11T12:20:22.252Z,32.06
2023-06-11T12:21:21.260Z,33.08
2023-06-11T12:22:21.235Z,33.28
2023-06-11T12:23:21.279Z,32.68
2023-06-11T12:24:21.319Z,32.21
2023-06-11T12:25:21.229Z,33.61
2023-06-11T12:26:21.671Z,33.80
2023-06-11T12:27:21.204Z,34.97
2023-06-11T12:28:21.205Z,32.39
2023-06-11T12:29:21.266Z,32.70
2023-06-11T12:30:21.209Z,33.08
2023-06-11T12:31:21.222Z,32.87
2023-06-11T12:32:23.656Z,32.18
2023-06-11T12:33:22.198Z,33.47
2023-06-11T12:34:21.152Z,32.60
2023-06-11T12:35:21.177Z,32.19
2023-06-11T12:36:21.144Z,32.09
2023-06-11T12:37:21.170Z,30.92
2023-06-11T12:38:21.137Z,30.32
2023-06-11T12:39:21.119Z,32.39
2023-06-11T12:40:21.141Z,30.99
2023-06-11T12:41:21.101Z,32.07
2023-06-11T12:42:21.102Z,31.79
2023-06-11T12:43:21.088Z,31.43
2023-06-11T12:44:21.098Z,31.45
2023-06-11T12:45:21.105Z,33.41
2023-06-11T12:46:21.136Z,31.79
2023-06-11T12:47:21.110Z,31.88
2023-06-11T12:48:21.058Z,32.57
2023-06-11T12:49:21.071Z,30.60
2023-06-11T12:50:25.058Z,29.71
2023-06-11T12:51:23.108Z,30.79
2023-06-11T12:52:21.047Z,30.32
2023-06-11T12:53:21.066Z,29.82